createdAt,value
2018-05-29T12:47:20.865Z,27.6
2018-05-29T12:48:10.972Z,27.6
2018-05-29T12:49:51.067Z,27.5
2018-05-29T12:50:40.845Z,27
2018-05-29T12:51:30.893Z,26.4
2018-05-29T12:52:20.960Z,26.2
2018-05-29T12:53:11.388Z,26.3
2018-05-29T12:54:01.083Z,26.4
2018-05-29T12:54:51.459Z,26.6
2018-05-29T12:55:41.246Z,27
2018-05-29T12:56:31.277Z,27.3
2018-05-29T12:57:21.663Z,27.4
2018-05-29T12:58:11.688Z,27.8
2018-05-29T12:59:01.788Z,27.6
2018-05-29T12:59:51.872Z,27.7
2018-05-29T13:00:41.889Z,27.5
2018-05-29T13:01:31.951Z,27.4
2018-05-29T13:02:22.063Z,27.3
2018-05-29T13:03:12.064Z,27.2
2018-05-29T13:04:02.194Z,26.8
2018-05-29T13:04:52.201Z,26.7
2018-05-29T13:05:41.688Z,26.4
2018-05-29T13:06:32.345Z,26.9
2018-05-29T13:07:22.120Z,27.5
2018-05-29T13:08:11.618Z,26.9
2018-05-29T13:09:02.241Z,26.7
2018-05-29T13:09:52.285Z,26.8
2018-05-29T13:10:42.669Z,26.9
2018-05-29T13:11:32.154Z,27.3
2018-05-29T13:12:22.483Z,27.4
2018-05-29T13:13:12.567Z,27.7
2018-05-29T13:14:02.617Z,27.7
2018-05-29T13:14:52.974Z,27.9
2018-05-29T13:15:43.053Z,27.9
2018-05-29T13:16:32.595Z,27.4
2018-05-29T13:17:23.143Z,27.6
2018-05-29T13:18:13.233Z,27.5
2018-05-29T13:19:03.299Z,27.3
2018-05-29T13:19:53.352Z,27.4
2018-05-29T13:20:43.113Z,27.4
2018-05-29T13:21:33.189Z,27.4
2018-05-29T13:22:23.275Z,27.6
2018-05-29T13:23:13.620Z,28
2018-05-29T13:24:03.676Z,27.6
2018-05-29T13:24:53.726Z,27.1
2018-05-29T13:25:43.517Z,26.3
2018-05-29T13:26:33.870Z,26.5
2018-05-29T13:27:23.674Z,26.6
2018-05-29T13:28:14.004Z,26.6
2018-05-29T13:29:04.052Z,26.6
2018-05-29T13:29:54.119Z,26.9
2018-05-29T13:30:44.186Z,27.2
2018-05-29T13:31:33.975Z,27.3
2018-05-29T13:32:24.314Z,27.1
2018-05-29T13:33:14.091Z,27.3
2018-05-29T13:34:04.439Z,27.5
2018-05-29T13:34:54.499Z,27.6
2018-05-29T13:35:44.585Z,27.7
2018-05-29T13:36:34.364Z,27.8
2018-05-29T13:37:24.714Z,27.7
2018-05-29T13:38:14.758Z,27.7
2018-05-29T13:39:04.815Z,27.4
2018-05-29T13:39:54.891Z,27.1
2018-05-29T13:40:44.944Z,26.7
2018-05-29T13:41:34.743Z,26.9
2018-05-29T13:42:25.071Z,27.1
2018-05-29T13:43:14.303Z,27.3
2018-05-29T13:44:04.946Z,27.3
2018-05-29T13:44:54.684Z,27.3
2018-05-29T13:45:44.744Z,27.2
2018-05-29T13:46:35.385Z,27.3
2018-05-29T13:47:25.452Z,27.4
2018-05-29T13:48:15.566Z,27.4
2018-05-29T13:49:05.403Z,27.7
2018-05-29T13:49:55.635Z,27.9
2018-05-29T13:50:44.877Z,28.1
2018-05-29T13:51:35.767Z,27.7
2018-05-29T13:52:25.818Z,27.4
2018-05-29T13:53:15.630Z,27.5
2018-05-29T13:54:05.389Z,27.3
2018-05-29T13:54:56.019Z,26.9
2018-05-29T13:55:46.095Z,26.9
2018-05-29T13:56:35.955Z,26.6
2018-05-29T13:57:26.287Z,26.2
2018-05-29T13:58:16.281Z,26.4
2018-05-29T13:59:06.061Z,26.6
2018-05-29T13:59:56.124Z,26.9
2018-05-29T14:00:46.527Z,27.3
2018-05-29T14:01:36.287Z,27.3
2018-05-29T14:02:26.327Z,27.2
2018-05-29T14:03:16.687Z,27.4
2018-05-29T14:04:06.742Z,27.5
2018-05-29T14:04:56.803Z,27.4
2018-05-29T14:05:46.580Z,27.4
2018-05-29T14:06:36.992Z,27.3
2018-05-29T14:07:26.729Z,26.8
2018-05-29T14:08:16.780Z,26.9
2018-05-29T14:09:07.476Z,26.9
2018-05-29T14:09:57.177Z,27
2018-05-29T14:10:47.240Z,27.1
2018-05-29T14:11:37.316Z,27.1
2018-05-29T14:12:27.096Z,26.9
2018-05-29T14:13:17.456Z,27
2018-05-29T14:14:07.520Z,27.5
2018-05-29T14:14:57.737Z,27.4
2018-05-29T14:15:47.626Z,27.1
2018-05-29T14:16:37.699Z,27.1
2018-05-29T14:17:26.928Z,27.6
2018-05-29T14:18:17.869Z,27.8
2018-05-29T14:19:07.884Z,27.5
2018-05-29T14:19:57.989Z,27.5
2018-05-29T14:20:48.059Z,27.7
2018-05-29T14:21:38.071Z,28.3
2018-05-29T14:22:27.886Z,28.1
2018-05-29T14:24:08.271Z,27.4
2018-05-29T14:24:57.763Z,27
2018-05-29T14:25:48.129Z,27.3
2018-05-29T14:26:38.189Z,27.6
2018-05-29T14:27:28.251Z,27.5
2018-05-29T14:28:18.627Z,27.3
2018-05-29T14:29:08.388Z,27.4
2018-05-29T14:29:58.727Z,27
2018-05-29T14:30:48.793Z,27.4
2018-05-29T14:31:38.863Z,27.3
2018-05-29T14:32:28.638Z,27.4
2018-05-29T14:33:18.962Z,27.3
2018-05-29T14:34:08.745Z,27.1
2018-05-29T14:34:59.108Z,27.1
2018-05-29T14:35:49.170Z,26.9
2018-05-29T14:36:39.234Z,26.9
2018-05-29T14:37:29.287Z,27.1
2018-05-29T14:38:19.129Z,27.3
2018-05-29T14:39:09.413Z,27.5
2018-05-29T14:39:59.203Z,26.9
2018-05-29T14:40:48.984Z,26.1
2018-05-29T14:41:39.588Z,26.1
2018-05-29T14:42:29.687Z,26.3
2018-05-29T14:43:19.748Z,26.4
2018-05-29T14:44:10.776Z,26.5
2018-05-29T14:44:59.863Z,26.3
2018-05-29T14:45:49.943Z,26.4
2018-05-29T14:46:39.998Z,26.6
2018-05-29T14:47:30.044Z,26.9
2018-05-29T14:48:19.857Z,27.1
2018-05-29T14:49:10.236Z,27
2018-05-29T14:50:00.246Z,27.1
2018-05-29T14:50:50.311Z,27
2018-05-29T14:51:40.371Z,26.9
2018-05-29T14:52:30.450Z,26.9
2018-05-29T14:53:20.520Z,26.7
2018-05-29T14:54:10.561Z,26.8
2018-05-29T14:55:00.625Z,26.8
2018-05-29T14:55:50.428Z,26.6
2018-05-29T14:56:40.486Z,26.6
2018-05-29T14:57:30.299Z,26.2
2018-05-29T14:58:20.919Z,26.3
2018-05-29T14:59:10.382Z,26
2018-05-29T15:00:01.022Z,26.1
2018-05-29T15:00:50.548Z,25.9
2018-05-29T15:01:41.164Z,25.8
2018-05-29T15:02:31.203Z,25.4
2018-05-29T15:03:21.018Z,25.7
2018-05-29T15:04:11.075Z,25.4
2018-05-29T15:05:01.408Z,25.6
2018-05-29T15:05:50.917Z,26
2018-05-29T15:06:41.522Z,26.1
2018-05-29T15:07:31.588Z,26.1
2018-05-29T15:08:20.938Z,26.3
2018-05-29T15:09:11.523Z,26.4
2018-05-29T15:10:01.788Z,26.4
2018-05-29T15:10:51.616Z,26.7
2018-05-29T15:11:41.926Z,26.7
2018-05-29T15:12:31.707Z,26.8
2018-05-29T15:13:22.063Z,26.9
2018-05-29T15:14:11.842Z,27.1
2018-05-29T15:15:01.916Z,27.6
2018-05-29T15:15:52.007Z,27.3
2018-05-29T15:16:42.329Z,27
2018-05-29T15:17:32.119Z,27.3
2018-05-29T15:18:22.447Z,27.2
2018-05-29T15:20:02.289Z,27.7
2018-05-29T15:20:52.625Z,27.1
2018-05-29T15:21:42.667Z,26.8
2018-05-29T15:22:31.989Z,27
2018-05-29T15:23:22.338Z,27
2018-05-29T15:24:12.308Z,26.9
2018-05-29T15:25:03.382Z,27
2018-05-29T15:25:52.744Z,26.8
2018-05-29T15:26:42.513Z,26.7
2018-05-29T15:27:33.168Z,26.8
2018-05-29T15:28:23.231Z,27.6
2018-05-29T15:30:03.033Z,27.6
2018-05-29T15:30:53.400Z,27.4
2018-05-29T15:31:43.442Z,27.4
2018-05-29T15:32:33.229Z,26.8
2018-05-29T15:33:23.861Z,26.8
2018-05-29T15:34:13.630Z,26.7
2018-05-29T15:35:03.768Z,26.6
2018-05-29T15:35:53.770Z,26.8
2018-05-29T15:36:43.817Z,26.8
2018-05-29T15:37:33.614Z,26.9
2018-05-29T15:38:23.677Z,26.8
2018-05-29T15:39:14.029Z,26.6
2018-05-29T15:40:04.092Z,27.1
2018-05-29T15:40:53.769Z,27.3
2018-05-29T15:41:43.953Z,27.4
2018-05-29T15:42:34.340Z,27
2018-05-29T15:43:24.078Z,26.9
2018-05-29T15:44:14.415Z,26.9
2018-05-29T15:45:04.488Z,27.1
2018-05-29T15:45:54.235Z,27.4
2018-05-29T15:46:44.614Z,27.4
2018-05-29T15:47:34.362Z,27.4
2018-05-29T15:48:24.723Z,26.9
2018-05-29T15:49:14.793Z,26.8
2018-05-29T15:50:04.562Z,27
2018-05-29T15:50:54.911Z,27
2018-05-29T15:51:44.954Z,26.5
2018-05-29T15:52:35.059Z,26.6
2018-05-29T15:53:25.668Z,26.4
2018-05-29T15:54:15.146Z,26.3
2018-05-29T15:55:05.218Z,26.7
2018-05-29T15:55:55.284Z,26.7
2018-05-29T15:56:45.090Z,26.6
2018-05-29T15:57:35.146Z,26.5
2018-05-29T15:58:24.952Z,26.8
2018-05-29T15:59:15.541Z,26.9
2018-05-29T16:00:05.695Z,27.2
2018-05-29T16:00:55.375Z,27.2
2018-05-29T16:01:45.725Z,26.9
2018-05-29T16:02:35.795Z,26.9
2018-05-29T16:03:25.863Z,26.8
2018-05-29T16:04:15.697Z,26.8
2018-05-29T16:05:05.995Z,26.7
2018-05-29T16:05:56.043Z,26.3
2018-05-29T16:06:46.170Z,26.5
2018-05-29T16:07:36.171Z,26.5
2018-05-29T16:08:26.048Z,26.7
2018-05-29T16:09:16.376Z,26.4
2018-05-29T16:10:06.106Z,26.3
2018-05-29T16:10:56.497Z,26.4
2018-05-29T16:11:46.535Z,26.2
2018-05-29T16:12:36.587Z,26
2018-05-29T16:13:26.377Z,25.9
2018-05-29T16:14:16.596Z,26.2
2018-05-29T16:15:06.533Z,25.8
2018-05-29T16:15:56.507Z,25.8
2018-05-29T16:16:46.699Z,25.4
2018-05-29T16:17:36.721Z,25.3
2018-05-29T16:18:25.901Z,25.3
2018-05-29T16:19:17.133Z,25.1
2018-05-29T16:20:06.918Z,25.1
2018-05-29T16:20:57.227Z,25.3
2018-05-29T16:21:47.050Z,25.2
2018-05-29T16:22:37.110Z,25.3
2018-05-29T16:23:27.181Z,25
2018-05-29T16:24:17.269Z,25.1
2018-05-29T16:25:07.037Z,25.1
2018-05-29T16:25:57.383Z,25.3
2018-05-29T16:26:47.645Z,25.3
2018-05-29T16:27:37.497Z,25.2
2018-05-29T16:28:27.881Z,24.9
2018-05-29T16:29:17.885Z,24.9
2018-05-29T16:30:07.972Z,24.8
2018-05-29T16:30:57.449Z,24.8
2018-05-29T16:31:47.824Z,24.8
2018-05-29T16:32:37.846Z,24.8
2018-05-29T16:33:28.182Z,24.9
2018-05-29T16:34:17.684Z,24.9
2018-05-29T16:35:08.336Z,24.8
2018-05-29T16:35:58.414Z,24.2
2018-05-29T16:36:48.169Z,23.9
2018-05-29T16:37:37.671Z,23.8
2018-05-29T16:38:28.301Z,23.6
2018-05-29T16:39:18.670Z,23.4
2018-05-29T16:40:08.702Z,23.3
2018-05-29T16:40:58.496Z,23
2018-05-29T16:41:48.849Z,23
2018-05-29T16:42:38.910Z,22.9
2018-05-29T16:43:28.975Z,23
2018-05-29T16:44:18.753Z,23
2018-05-29T16:45:08.823Z,23
2018-05-29T16:45:58.872Z,23
2018-05-29T16:46:49.203Z,22.9
2018-05-29T16:47:39.309Z,22.8
2018-05-29T16:48:29.359Z,22.8
2018-05-29T16:49:19.408Z,22.7
2018-05-29T16:50:09.503Z,22.7
2018-05-29T16:50:59.010Z,22.6
2018-05-29T16:51:49.302Z,22.6
2018-05-29T16:52:38.782Z,22.6
2018-05-29T16:53:29.397Z,22.5
2018-05-29T16:54:19.478Z,22.4
2018-05-29T16:55:09.808Z,22.3
2018-05-29T16:55:59.868Z,22.2
2018-05-29T16:56:49.373Z,22.1
2018-05-29T16:57:40.009Z,22.1
2018-05-29T16:58:29.523Z,22.1
2018-05-29T16:59:19.912Z,22.1
2018-05-29T17:00:10.239Z,22.2
2018-05-29T17:01:00.260Z,22.1
2018-05-29T17:01:50.059Z,22
2018-05-29T17:02:40.440Z,21.9
2018-05-29T17:03:30.546Z,22
2018-05-29T17:04:20.573Z,22
2018-05-29T17:05:10.672Z,22
2018-05-29T17:06:00.416Z,21.9
2018-05-29T17:06:50.770Z,21.9
2018-05-29T17:07:39.928Z,21.9
2018-05-29T17:08:30.606Z,21.9
2018-05-29T17:09:20.962Z,21.8
2018-05-29T17:10:10.748Z,21.8
2018-05-29T17:11:01.054Z,21.7
2018-05-29T17:11:51.110Z,21.7
2018-05-29T17:12:40.887Z,21.7
2018-05-29T17:13:31.243Z,21.8
2018-05-29T17:14:21.288Z,21.7
2018-05-29T17:15:11.507Z,21.6
2018-05-29T17:16:01.412Z,21.6
2018-05-29T17:16:51.446Z,21.6
2018-05-29T17:17:41.511Z,21.5
2018-05-29T17:18:31.604Z,21.5
2018-05-29T17:19:21.630Z,21.5
2018-05-29T17:20:11.708Z,21.5
2018-05-29T17:21:01.492Z,21.4
2018-05-29T17:21:51.772Z,21.4
2018-05-29T17:22:41.888Z,21.4
2018-05-29T17:23:31.478Z,21.4
2018-05-29T17:24:22.043Z,21.3
2018-05-29T17:25:12.075Z,21.3
2018-05-29T17:26:02.182Z,21.3
2018-05-29T17:26:52.242Z,21.3
2018-05-29T17:27:42.267Z,21.3
2018-05-29T17:28:32.331Z,21.3
2018-05-29T17:29:22.172Z,21.2
2018-05-29T17:30:12.173Z,21.2
2018-05-29T17:31:02.557Z,21.2
2018-05-29T17:31:52.784Z,21.2
2018-05-29T17:34:22.792Z,21.1
2018-05-29T17:35:12.601Z,21.1
2018-05-29T17:36:02.349Z,21
2018-05-29T17:36:53.003Z,21
2018-05-29T17:37:43.090Z,21
2018-05-29T17:38:33.096Z,20.9
2018-05-29T17:39:23.172Z,20.9
2018-05-29T17:40:13.239Z,20.9
2018-05-29T17:41:03.349Z,20.8
2018-05-29T17:41:53.353Z,20.8
2018-05-29T17:42:43.452Z,20.8
2018-05-29T17:43:33.500Z,20.8
2018-05-29T17:44:23.273Z,20.7
2018-05-29T17:45:13.333Z,20.8
2018-05-29T17:46:03.143Z,20.7
2018-05-29T17:46:53.719Z,20.7
2018-05-29T17:47:43.790Z,20.6
2018-05-29T17:48:33.890Z,20.6
2018-05-29T17:49:23.652Z,20.6
2018-05-29T17:50:14.009Z,20.6
2018-05-29T17:51:03.765Z,20.6
2018-05-29T17:51:53.557Z,20.6
2018-05-29T17:52:44.171Z,20.5
2018-05-29T17:53:34.232Z,20.4
2018-05-29T17:54:24.298Z,20.4
2018-05-29T17:55:14.361Z,20.4
2018-05-29T17:56:04.162Z,20.4
2018-05-29T17:56:54.237Z,20.4
2018-05-29T17:57:43.999Z,20.3
2018-05-29T17:58:34.616Z,20.3
2018-05-29T17:59:24.392Z,20.3
2018-05-29T18:00:14.764Z,20.2
2018-05-29T18:01:04.809Z,20.2
2018-05-29T18:01:54.580Z,20.2
2018-05-29T18:02:44.525Z,20.2
2018-05-29T18:03:34.024Z,20.1
2018-05-29T18:04:25.058Z,20.2
2018-05-29T18:05:15.111Z,20.2
2018-05-29T18:06:05.179Z,20.2
2018-05-29T18:06:55.229Z,20.1
2018-05-29T18:07:45.309Z,20.1
2018-05-29T18:08:35.092Z,20.1
2018-05-29T18:09:25.214Z,20.1
2018-05-29T18:10:15.506Z,20.1
2018-05-29T18:11:05.024Z,20.1
2018-05-29T18:11:55.684Z,19.9
2018-05-29T18:12:45.681Z,19.8
2018-05-29T18:13:35.461Z,19.6
2018-05-29T18:14:25.817Z,19.5
2018-05-29T18:15:15.881Z,19.5
2018-05-29T18:16:05.671Z,19.5
2018-05-29T18:16:56.023Z,19.5
2018-05-29T18:17:46.089Z,19.6
2018-05-29T18:18:35.601Z,19.5
2018-05-29T18:19:26.230Z,19.6
2018-05-29T18:20:16.301Z,19.6
2018-05-29T18:21:06.035Z,19.6
2018-05-29T18:21:56.415Z,19.7
2018-05-29T18:22:45.671Z,19.8
2018-05-29T18:23:36.510Z,19.9
2018-05-29T18:24:26.343Z,19.9
2018-05-29T18:25:16.422Z,20
2018-05-29T18:26:06.740Z,20
2018-05-29T18:26:56.778Z,20.1
2018-05-29T18:27:45.994Z,20.1
2018-05-29T18:28:36.625Z,20
2018-05-29T18:29:26.438Z,20
2018-05-29T18:30:16.738Z,20
2018-05-29T18:31:07.392Z,19.9
2018-05-29T18:31:57.190Z,19.9
2018-05-29T18:32:46.989Z,19.9
2018-05-29T18:33:36.725Z,19.8
2018-05-29T18:34:27.345Z,19.8
2018-05-29T18:35:17.136Z,19.7
2018-05-29T18:36:07.500Z,19.7
2018-05-29T18:36:57.232Z,19.7
2018-05-29T18:37:47.328Z,19.7
2018-05-29T18:38:37.656Z,19.7
2018-05-29T18:39:27.497Z,19.8
2018-05-29T18:40:17.520Z,19.8
2018-05-29T18:41:07.861Z,19.8
2018-05-29T18:41:57.361Z,19.8
2018-05-29T18:42:47.984Z,19.8
2018-05-29T18:43:37.907Z,19.6
2018-05-29T18:44:28.216Z,19.5
2018-05-29T18:45:17.879Z,19.5
2018-05-29T18:46:08.289Z,19.4
2018-05-29T18:46:58.328Z,19.4
2018-05-29T18:47:48.509Z,19.4
2018-05-29T18:48:37.855Z,19.5
2018-05-29T18:49:28.583Z,19.4
2018-05-29T18:50:19.120Z,19.4
2018-05-29T18:51:08.604Z,19.4
2018-05-29T18:51:58.089Z,19.6
2018-05-29T18:52:48.736Z,19.7
2018-05-29T18:53:38.790Z,19.6
2018-05-29T18:54:28.890Z,19.6
2018-05-29T18:55:18.936Z,19.6
2018-05-29T18:56:09.018Z,19.5
2018-05-29T18:56:59.131Z,19.4
2018-05-29T18:57:48.562Z,19.3
2018-05-29T18:58:39.207Z,19.3
2018-05-29T18:59:28.989Z,19.3
2018-05-29T19:00:19.322Z,19.3
2018-05-29T19:01:09.360Z,19.3
2018-05-29T19:01:59.445Z,19.3
2018-05-29T19:02:49.523Z,19.4
2018-05-29T19:03:39.388Z,19.5
2018-05-29T19:04:29.152Z,19.5
2018-05-29T19:05:19.181Z,19.4
2018-05-29T19:06:09.484Z,19.3
2018-05-29T19:06:59.532Z,19.3
2018-05-29T19:07:49.893Z,19.3
2018-05-29T19:08:39.348Z,19.4
2018-05-29T19:09:29.447Z,19.3
2018-05-29T19:10:20.084Z,19.4
2018-05-29T19:11:09.878Z,19.3
2018-05-29T19:11:59.925Z,19.3
2018-05-29T19:12:49.982Z,19.2
2018-05-29T19:13:40.062Z,19.3
2018-05-29T19:14:30.165Z,19.3
2018-05-29T19:15:20.478Z,19.3
2018-05-29T19:16:10.505Z,19.3
2018-05-29T19:17:00.760Z,19.3
2018-05-29T19:17:50.114Z,19.3
2018-05-29T19:18:40.174Z,19.3
2018-05-29T19:19:30.522Z,19.3
2018-05-29T19:20:20.069Z,19.4
2018-05-29T19:21:10.639Z,19.3
2018-05-29T19:22:00.713Z,19.2
2018-05-29T19:22:51.415Z,19.3
2018-05-29T19:23:41.085Z,19.3
2018-05-29T19:24:30.864Z,19.2
2018-05-29T19:25:21.295Z,19.1
2018-05-29T19:26:11.271Z,19.1
2018-05-29T19:27:01.333Z,19.1
2018-05-29T19:27:51.120Z,19.1
2018-05-29T19:28:40.862Z,19.1
2018-05-29T19:29:30.974Z,19.2
2018-05-29T19:30:21.612Z,19.3
2018-05-29T19:31:11.111Z,19.3
2018-05-29T19:32:01.448Z,19.3
2018-05-29T19:32:51.772Z,19.4
2018-05-29T19:33:41.273Z,19.3
2018-05-29T19:34:31.930Z,19.3
2018-05-29T19:35:22.144Z,19.3
2018-05-29T19:36:11.782Z,19.3
2018-05-29T19:37:02.074Z,19.2
2018-05-29T19:37:52.163Z,19.2
2018-05-29T19:38:42.241Z,19.2
2018-05-29T19:39:31.882Z,19.1
2018-05-29T19:40:21.906Z,19.1
2018-05-29T19:41:11.642Z,19.1
2018-05-29T19:42:02.491Z,19.1
2018-05-29T19:42:52.556Z,19.1
2018-05-29T19:43:42.313Z,19.1
2018-05-29T19:44:32.406Z,19.1
2018-05-29T19:45:22.769Z,19.1
2018-05-29T19:46:12.799Z,19.2
2018-05-29T19:47:02.905Z,19.2
2018-05-29T19:47:52.997Z,19.2
2018-05-29T19:48:42.415Z,19.2
2018-05-29T19:49:33.072Z,19.1
2018-05-29T19:50:23.121Z,19.1
2018-05-29T19:51:13.084Z,19.1
2018-05-29T19:52:02.953Z,19.1
2018-05-29T19:52:52.733Z,19.1
2018-05-29T19:53:43.393Z,19
2018-05-29T19:54:33.175Z,19
2018-05-29T19:55:23.212Z,19
2018-05-29T19:56:13.279Z,19
2018-05-29T19:57:03.037Z,18.9
2018-05-29T19:57:53.703Z,19
2018-05-29T19:58:43.214Z,18.9
2018-05-29T19:59:33.851Z,18.9
2018-05-29T20:00:23.642Z,18.9
2018-05-29T20:01:14.329Z,18.9
2018-05-29T20:02:04.032Z,18.8
2018-05-29T20:02:53.810Z,18.8
2018-05-29T20:03:43.270Z,18.8
2018-05-29T20:04:34.197Z,18.8
2018-05-29T20:05:23.686Z,18.8
2018-05-29T20:06:14.316Z,18.8
2018-05-29T20:07:04.246Z,18.8
2018-05-29T20:07:54.446Z,18.9
2018-05-29T20:08:44.543Z,18.9
2018-05-29T20:09:34.314Z,18.9
2018-05-29T20:10:24.669Z,18.9
2018-05-29T20:12:04.477Z,18.3
2018-05-29T20:12:54.283Z,18.3
2018-05-29T20:13:44.933Z,18.3
2018-05-29T20:14:34.678Z,18.4
2018-05-29T20:15:25.020Z,18.5
2018-05-29T20:16:15.088Z,18.5
2018-05-29T20:17:04.829Z,18.5
2018-05-29T20:17:54.908Z,18.5
2018-05-29T20:18:44.913Z,18.4
2018-05-29T20:19:35.058Z,18.4
2018-05-29T20:20:25.362Z,18.5
2018-05-29T20:21:15.465Z,18.5
2018-05-29T20:22:05.511Z,18.5
2018-05-29T20:22:55.295Z,18.5
2018-05-29T20:23:45.401Z,18.4
2018-05-29T20:24:35.764Z,18.4
2018-05-29T20:25:25.519Z,18.4
2018-05-29T20:26:15.318Z,18.3
2018-05-29T20:27:05.373Z,18.3
2018-05-29T20:27:55.979Z,18.2
2018-05-29T20:28:45.485Z,18.2
2018-05-29T20:29:35.853Z,18.2
2018-05-29T20:30:25.882Z,18.1
2018-05-29T20:31:16.317Z,18.1
2018-05-29T20:32:05.743Z,18
2018-05-29T20:32:55.802Z,17.9
2018-05-29T20:33:46.406Z,17.9
2018-05-29T20:34:36.531Z,17.9
2018-05-29T20:35:25.470Z,17.9
2018-05-29T20:36:16.155Z,18
2018-05-29T20:37:05.688Z,18
2018-05-29T20:37:55.994Z,18
2018-05-29T20:38:47.097Z,18
2018-05-29T20:39:36.860Z,18
2018-05-29T20:40:26.928Z,18.1
2018-05-29T20:41:16.431Z,18.1
2018-05-29T20:42:07.078Z,18.3
2018-05-29T20:42:57.153Z,18.4
2018-05-29T20:43:47.335Z,18.5
2018-05-29T20:44:36.695Z,18.4
2018-05-29T20:45:27.325Z,18.4
2018-05-29T20:46:17.414Z,18.4
2018-05-29T20:47:07.159Z,18.5
2018-05-29T20:47:57.499Z,18.4
2018-05-29T20:48:47.305Z,18.4
2018-05-29T20:49:37.323Z,18.6
2018-05-29T20:50:27.430Z,18.5
2018-05-29T20:51:17.499Z,18.5
2018-05-29T20:52:07.573Z,18.4
2018-05-29T20:52:57.585Z,18.4
2018-05-29T20:53:48.195Z,18.4
2018-05-29T20:54:37.742Z,18.4
2018-05-29T20:55:28.364Z,18.4
2018-05-29T20:56:17.915Z,18.4
2018-05-29T20:57:07.900Z,18.5
2018-05-29T20:57:58.318Z,18.4
2018-05-29T20:58:48.071Z,18.4
2018-05-29T20:59:37.825Z,18.4
2018-05-29T21:00:28.183Z,18.4
2018-05-29T21:01:18.560Z,18.4
2018-05-29T21:02:08.602Z,18.4
2018-05-29T21:02:58.628Z,18.4
2018-05-29T21:03:48.739Z,18.4
2018-05-29T21:04:38.790Z,18.4
2018-05-29T21:05:28.899Z,18.3
2018-05-29T21:06:18.918Z,18.4
2018-05-29T21:07:08.995Z,18.4
2018-05-29T21:07:59.074Z,18.4
2018-05-29T21:08:49.122Z,18.4
2018-05-29T21:09:39.234Z,18.3
2018-05-29T21:10:28.656Z,18.3
2018-05-29T21:11:19.009Z,18.3
2018-05-29T21:12:09.388Z,18.3
2018-05-29T21:12:59.139Z,18.3
2018-05-29T21:13:49.459Z,18.2
2018-05-29T21:14:39.551Z,18.2
2018-05-29T21:15:29.348Z,18.3
2018-05-29T21:16:18.783Z,18.3
2018-05-29T21:17:09.742Z,18.3
2018-05-29T21:17:59.794Z,18.4
2018-05-29T21:18:49.606Z,18.3
2018-05-29T21:19:39.673Z,18.3
2018-05-29T21:20:29.962Z,18.2
2018-05-29T21:21:19.998Z,18.3
2018-05-29T21:22:09.894Z,18.2
2018-05-29T21:23:00.177Z,18.1
2018-05-29T21:23:49.926Z,18.1
2018-05-29T21:24:40.262Z,18
2018-05-29T21:25:29.847Z,18
2018-05-29T21:26:20.414Z,17.9
2018-05-29T21:27:10.496Z,17.9
2018-05-29T21:28:00.244Z,17.9
2018-05-29T21:28:50.308Z,17.8
2018-05-29T21:29:40.652Z,17.8
2018-05-29T21:30:30.717Z,17.7
2018-05-29T21:31:20.804Z,17.6
2018-05-29T21:32:10.868Z,17.6
2018-05-29T21:33:00.917Z,17.6
2018-05-29T21:33:50.688Z,17.8
2018-05-29T21:34:40.765Z,17.8
2018-05-29T21:35:31.089Z,17.9
2018-05-29T21:36:21.181Z,17.8
2018-05-29T21:37:11.242Z,17.7
2018-05-29T21:38:01.272Z,17.6
2018-05-29T21:38:51.343Z,17.6
2018-05-29T21:39:41.406Z,17.7
2018-05-29T21:40:31.475Z,17.6
2018-05-29T21:41:21.262Z,17.6
2018-05-29T21:42:11.581Z,17.5
2018-05-29T21:43:01.379Z,17.4
2018-05-29T21:43:51.721Z,17.4
2018-05-29T21:44:41.795Z,17.3
2018-05-29T21:45:31.840Z,17.3
2018-05-29T21:46:21.934Z,17.1
2018-05-29T21:47:11.691Z,16.9
2018-05-29T21:48:02.051Z,16.8
2018-05-29T21:48:51.552Z,16.6
2018-05-29T21:49:42.200Z,16.4
2018-05-29T21:50:31.939Z,16.1
2018-05-29T21:51:22.335Z,15.9
2018-05-29T21:52:12.373Z,15.7
2018-05-29T21:53:02.421Z,15.4
2018-05-29T21:53:52.518Z,15.3
2018-05-29T21:54:42.281Z,15.2
2018-05-29T21:55:32.609Z,15.3
2018-05-29T21:56:22.398Z,15.2
2018-05-29T21:57:12.749Z,15.1
2018-05-29T21:58:02.254Z,15.1
2018-05-29T21:58:52.875Z,15.1
2018-05-29T21:59:42.651Z,15
2018-05-29T22:00:32.443Z,15
2018-05-29T22:01:23.084Z,14.9
2018-05-29T22:02:12.830Z,14.9
2018-05-29T22:03:03.191Z,14.9
2018-05-29T22:03:53.278Z,14.9
2018-05-29T22:04:42.756Z,14.9
2018-05-29T22:05:33.123Z,14.9
2018-05-29T22:06:22.889Z,14.9
2018-05-29T22:07:12.929Z,15
2018-05-29T22:08:03.037Z,14.9
2018-05-29T22:08:53.088Z,15
2018-05-29T22:09:43.726Z,14.9
2018-05-29T22:10:33.765Z,14.9
2018-05-29T22:11:23.821Z,14.9
2018-05-29T22:12:13.885Z,14.9
2018-05-29T22:13:03.956Z,14.9
2018-05-29T22:13:53.756Z,14.9
2018-05-29T22:14:43.341Z,14.9
2018-05-29T22:15:34.162Z,14.9
2018-05-29T22:16:24.202Z,14.9
2018-05-29T22:17:14.276Z,14.9
2018-05-29T22:18:04.362Z,14.9
2018-05-29T22:18:54.393Z,14.9
2018-05-29T22:19:43.913Z,14.9
2018-05-29T22:20:34.528Z,14.9
2018-05-29T22:21:24.663Z,14.8
2018-05-29T22:22:14.390Z,14.9
2018-05-29T22:23:04.439Z,15
2018-05-29T22:23:54.263Z,15.1
2018-05-29T22:24:44.833Z,15.1
2018-05-29T22:25:34.941Z,15.2
2018-05-29T22:26:25.008Z,15.3
2018-05-29T22:27:15.057Z,15.3
2018-05-29T22:28:05.113Z,15.3
2018-05-29T22:28:54.885Z,15.3
2018-05-29T22:29:45.221Z,15.3
2018-05-29T22:30:35.259Z,15.2
2018-05-29T22:31:25.085Z,15.1
2018-05-29T22:32:15.460Z,15.2
2018-05-29T22:33:05.485Z,15.2
2018-05-29T22:33:55.575Z,15.3
2018-05-29T22:34:45.326Z,15.3
2018-05-29T22:35:35.673Z,15.1
2018-05-29T22:36:25.460Z,15.1
2018-05-29T22:37:15.789Z,15.1
2018-05-29T22:38:05.614Z,15.1
2018-05-29T22:38:55.919Z,15.1
2018-05-29T22:39:46.011Z,15.1
2018-05-29T22:40:36.031Z,15.1
2018-05-29T22:41:25.832Z,15
2018-05-29T22:42:16.195Z,15.1
2018-05-29T22:43:05.982Z,15.2
2018-05-29T22:43:56.085Z,15.2
2018-05-29T22:44:46.367Z,15.2
2018-05-29T22:45:35.847Z,15.3
2018-05-29T22:46:26.222Z,15.2
2018-05-29T22:47:15.991Z,15.2
2018-05-29T22:48:06.627Z,15.2
2018-05-29T22:48:56.731Z,15.2
2018-05-29T22:49:46.765Z,15.1
2018-05-29T22:50:36.555Z,15.1
2018-05-29T22:51:26.908Z,15.1
2018-05-29T22:52:16.943Z,15.1
2018-05-29T22:53:06.725Z,15
2018-05-29T22:53:56.856Z,15
2018-05-29T22:54:46.876Z,14.7
2018-05-29T22:55:36.660Z,14.6
2018-05-29T22:56:27.282Z,14.5
2018-05-29T22:57:17.342Z,14.5
2018-05-29T22:58:07.414Z,14.5
2018-05-29T22:58:57.165Z,14.4
2018-05-29T22:59:47.241Z,14.5
2018-05-29T23:00:37.587Z,14.5
2018-05-29T23:01:27.657Z,14.6
2018-05-29T23:02:17.462Z,14.6
2018-05-29T23:03:07.503Z,14.6
2018-05-29T23:03:57.818Z,14.6
2018-05-29T23:04:47.895Z,14.6
2018-05-29T23:05:37.875Z,14.7
2018-05-29T23:06:27.749Z,14.6
2018-05-29T23:07:18.094Z,14.6
2018-05-29T23:08:07.872Z,14.5
2018-05-29T23:08:57.940Z,14.4
2018-05-29T23:09:48.039Z,14.5
2018-05-29T23:10:38.082Z,14.4
2018-05-29T23:11:28.419Z,14.4
2018-05-29T23:12:18.471Z,14.4
2018-05-29T23:13:08.564Z,14.4
2018-05-29T23:13:58.605Z,14.4
2018-05-29T23:14:48.672Z,14.4
2018-05-29T23:15:38.447Z,14.4
2018-05-29T23:16:28.789Z,14.4
2018-05-29T23:17:18.861Z,14.6
2018-05-29T23:18:08.081Z,14.6
2018-05-29T23:18:58.972Z,14.5
2018-05-29T23:19:49.057Z,14.5
2018-05-29T23:20:38.533Z,14.5
2018-05-29T23:21:28.893Z,14.4
2018-05-29T23:22:19.223Z,14.4
2018-05-29T23:23:09.308Z,14.4
2018-05-29T23:23:59.369Z,14.2
2018-05-29T23:24:49.124Z,14.1
2018-05-29T23:25:39.498Z,13.9
2018-05-29T23:26:29.585Z,13.9
2018-05-29T23:27:19.333Z,13.8
2018-05-29T23:28:09.395Z,13.8
2018-05-29T23:28:59.188Z,13.8
2018-05-29T23:29:49.596Z,13.8
2018-05-29T23:30:39.880Z,13.9
2018-05-29T23:31:29.938Z,13.9
2018-05-29T23:32:19.444Z,14
2018-05-29T23:33:10.082Z,14.1
2018-05-29T23:33:59.836Z,14
2018-05-29T23:34:49.915Z,14.1
2018-05-29T23:35:40.281Z,14
2018-05-29T23:36:30.052Z,13.9
2018-05-29T23:37:20.371Z,13.9
2018-05-29T23:38:10.456Z,13.9
2018-05-29T23:39:00.506Z,13.9
2018-05-29T23:39:50.314Z,13.8
2018-05-29T23:40:40.649Z,13.8
2018-05-29T23:41:30.691Z,13.8
2018-05-29T23:42:20.499Z,13.8
2018-05-29T23:43:10.825Z,13.8
2018-05-29T23:44:00.861Z,13.8
2018-05-29T23:44:50.691Z,13.8
2018-05-29T23:45:41.001Z,13.7
2018-05-29T23:46:31.064Z,13.7
2018-05-29T23:47:21.133Z,13.6
2018-05-29T23:48:11.198Z,13.6
2018-05-29T23:49:01.260Z,13.6
2018-05-29T23:49:51.354Z,13.6
2018-05-29T23:50:41.400Z,13.6
2018-05-29T23:51:31.456Z,13.6
2018-05-29T23:52:21.510Z,13.6
2018-05-29T23:53:11.321Z,13.6
2018-05-29T23:54:01.648Z,13.5
2018-05-29T23:54:51.148Z,13.5
2018-05-29T23:55:41.809Z,13.5
2018-05-29T23:56:31.851Z,13.4
2018-05-29T23:57:21.913Z,13.4
2018-05-29T23:58:11.978Z,13.4
2018-05-29T23:59:01.792Z,13.4
2018-05-29T23:59:51.804Z,13.4
